RYR6HL LIPQ-LIBD
Flight info
| Callsign | RYR6HL |
|---|---|
| Flight time | 0h 55m |
| Altitude | 35000 |
| Route | ROSKA DCT ANC DCT LAPVO DCT NUTRO DCT ARSOB DCT ERPOG DCT AFCAM DCT BEFHE DCT EKMUR |
| Aircraft | B738/M-SDE2E3FGHIRWXY/LB1 |
Departure
| Time | 2026-05-08 17:07 |
|---|---|
| Airport | Trieste Airport (LIPQ) |
Arrival
| Time | 2026-05-08 18:02 |
|---|---|
| Airport | Bari Karol Wojtyła International Airport (LIBD) |
| Time | Latitude | Longitude | Altitude | Speed | Heading |
|---|---|---|---|---|---|
| 2026-05-08 16:43 | 45.82310 | 13.48301 | 43 ft | 0 kts | 132° |
| 2026-05-08 16:57 | 45.82286 | 13.48338 | 43 ft | 8 kts | 132° |
| 2026-05-08 16:58 | 45.82267 | 13.48367 | 43 ft | 0 kts | 132° |
| 2026-05-08 16:58 | 45.82267 | 13.48373 | 43 ft | 2 kts | 86° |
| 2026-05-08 16:58 | 45.82273 | 13.48441 | 43 ft | 9 kts | 83° |
| 2026-05-08 16:59 | 45.82283 | 13.48530 | 43 ft | 8 kts | 72° |
| 2026-05-08 16:59 | 45.82324 | 13.48576 | 43 ft | 8 kts | 0° |
| 2026-05-08 16:59 | 45.82379 | 13.48577 | 43 ft | 8 kts | 359° |
| 2026-05-08 16:59 | 45.82453 | 13.48575 | 43 ft | 12 kts | 359° |
| 2026-05-08 17:00 | 45.82543 | 13.48574 | 44 ft | 12 kts | 360° |
| 2026-05-08 17:00 | 45.82626 | 13.48575 | 44 ft | 9 kts | 1° |
| 2026-05-08 17:00 | 45.82656 | 13.48576 | 44 ft | 1 kts | 1° |
| 2026-05-08 17:00 | 45.82659 | 13.48577 | 44 ft | 0 kts | 1° |
| 2026-05-08 17:05 | 45.82709 | 13.48579 | 44 ft | 14 kts | 1° |
| 2026-05-08 17:05 | 45.82777 | 13.48523 | 44 ft | 12 kts | 274° |
| 2026-05-08 17:06 | 45.82779 | 13.48307 | 44 ft | 47 kts | 270° |
| 2026-05-08 17:06 | 45.82783 | 13.47525 | 46 ft | 109 kts | 270° |
| 2026-05-08 17:06 | 45.82790 | 13.46161 | 46 ft | 161 kts | 270° |
| 2026-05-08 17:06 | 45.82799 | 13.44513 | 531 ft | 166 kts | 271° |
| 2026-05-08 17:07 | 45.82836 | 13.42862 | 1147 ft | 168 kts | 272° |
| 2026-05-08 17:07 | 45.82870 | 13.41173 | 1675 ft | 177 kts | 272° |
| 2026-05-08 17:07 | 45.82894 | 13.39350 | 2053 ft | 193 kts | 271° |
| 2026-05-08 17:07 | 45.82716 | 13.37362 | 2436 ft | 210 kts | 250° |
| 2026-05-08 17:08 | 45.81933 | 13.35559 | 2930 ft | 222 kts | 223° |
| 2026-05-08 17:08 | 45.80635 | 13.34373 | 3610 ft | 224 kts | 203° |
| 2026-05-08 17:08 | 45.79195 | 13.33547 | 4264 ft | 228 kts | 200° |
| 2026-05-08 17:08 | 45.77706 | 13.32718 | 4958 ft | 231 kts | 202° |
| 2026-05-08 17:09 | 45.76242 | 13.31811 | 5615 ft | 234 kts | 202° |
| 2026-05-08 17:09 | 45.74770 | 13.30893 | 6374 ft | 233 kts | 202° |
| 2026-05-08 17:09 | 45.73277 | 13.29968 | 7036 ft | 238 kts | 202° |
| 2026-05-08 17:09 | 45.71747 | 13.29015 | 7630 ft | 245 kts | 204° |
| 2026-05-08 17:10 | 45.70271 | 13.27781 | 8322 ft | 249 kts | 220° |
| 2026-05-08 17:10 | 45.69069 | 13.26028 | 9039 ft | 251 kts | 230° |
| 2026-05-08 17:10 | 45.67941 | 13.24073 | 9579 ft | 262 kts | 231° |
| 2026-05-08 17:10 | 45.66738 | 13.22015 | 10029 ft | 277 kts | 230° |
| 2026-05-08 17:11 | 45.65431 | 13.19868 | 10462 ft | 293 kts | 229° |
| 2026-05-08 17:11 | 45.64022 | 13.17722 | 10887 ft | 308 kts | 223° |
| 2026-05-08 17:11 | 45.62329 | 13.15791 | 11531 ft | 316 kts | 216° |
| 2026-05-08 17:11 | 45.60487 | 13.14001 | 12247 ft | 321 kts | 213° |
| 2026-05-08 17:12 | 45.58625 | 13.12270 | 12894 ft | 329 kts | 213° |
| 2026-05-08 17:12 | 45.56653 | 13.10431 | 13373 ft | 343 kts | 213° |
| 2026-05-08 17:12 | 45.54665 | 13.08546 | 14075 ft | 348 kts | 213° |
| 2026-05-08 17:12 | 45.52661 | 13.06625 | 14834 ft | 353 kts | 214° |
| 2026-05-08 17:13 | 45.50610 | 13.04645 | 15296 ft | 366 kts | 214° |
| 2026-05-08 17:13 | 45.48472 | 13.02576 | 15993 ft | 372 kts | 214° |
| 2026-05-08 17:13 | 45.46319 | 13.00492 | 16482 ft | 384 kts | 214° |
| 2026-05-08 17:13 | 45.44085 | 12.98331 | 16882 ft | 397 kts | 214° |
| 2026-05-08 17:14 | 45.41755 | 12.96083 | 17507 ft | 404 kts | 214° |
| 2026-05-08 17:14 | 45.39423 | 12.93834 | 18000 ft | 414 kts | 215° |
| 2026-05-08 17:14 | 45.37020 | 12.91520 | 18543 ft | 422 kts | 215° |
| 2026-05-08 17:14 | 45.34563 | 12.89279 | 19264 ft | 424 kts | 211° |
| 2026-05-08 17:15 | 45.31885 | 12.87495 | 19931 ft | 429 kts | 201° |
| 2026-05-08 17:15 | 45.28997 | 12.86371 | 20657 ft | 432 kts | 192° |
| 2026-05-08 17:15 | 45.26033 | 12.85946 | 21287 ft | 438 kts | 183° |
| 2026-05-08 17:15 | 45.22972 | 12.86226 | 21861 ft | 444 kts | 173° |
| 2026-05-08 17:16 | 45.19953 | 12.87221 | 22431 ft | 451 kts | 165° |
| 2026-05-08 17:16 | 45.16982 | 12.88785 | 23000 ft | 456 kts | 160° |
| 2026-05-08 17:16 | 45.14045 | 12.90529 | 23558 ft | 460 kts | 160° |
| 2026-05-08 17:16 | 45.11116 | 12.92220 | 24144 ft | 463 kts | 161° |
| 2026-05-08 17:17 | 45.08089 | 12.93815 | 24746 ft | 465 kts | 163° |
| 2026-05-08 17:17 | 45.05019 | 12.95275 | 25347 ft | 466 kts | 165° |
| 2026-05-08 17:17 | 45.01925 | 12.96616 | 25860 ft | 470 kts | 166° |
| 2026-05-08 17:17 | 44.98767 | 12.97886 | 26467 ft | 470 kts | 167° |
| 2026-05-08 17:18 | 44.95654 | 12.99071 | 27370 ft | 464 kts | 168° |
| 2026-05-08 17:18 | 44.92554 | 13.00214 | 28099 ft | 461 kts | 168° |
| 2026-05-08 17:18 | 44.89453 | 13.01333 | 28779 ft | 459 kts | 168° |
| 2026-05-08 17:18 | 44.86388 | 13.02427 | 29438 ft | 457 kts | 168° |
| 2026-05-08 17:19 | 44.83312 | 13.03521 | 30075 ft | 455 kts | 168° |
| 2026-05-08 17:19 | 44.80228 | 13.04616 | 30651 ft | 454 kts | 169° |
| 2026-05-08 17:19 | 44.77182 | 13.05697 | 31164 ft | 453 kts | 169° |
| 2026-05-08 17:19 | 44.74094 | 13.06794 | 31600 ft | 454 kts | 169° |
| 2026-05-08 17:20 | 44.71031 | 13.07879 | 31948 ft | 456 kts | 170° |
| 2026-05-08 17:20 | 44.67962 | 13.08966 | 32267 ft | 459 kts | 170° |
| 2026-05-08 17:20 | 44.64880 | 13.10057 | 32595 ft | 461 kts | 170° |
| 2026-05-08 17:20 | 44.61740 | 13.11169 | 32987 ft | 462 kts | 170° |
| 2026-05-08 17:21 | 44.58664 | 13.12259 | 33465 ft | 461 kts | 171° |
| 2026-05-08 17:21 | 44.55559 | 13.13361 | 33903 ft | 460 kts | 171° |
| 2026-05-08 17:21 | 44.52447 | 13.14461 | 34159 ft | 463 kts | 171° |
| 2026-05-08 17:21 | 44.49314 | 13.15567 | 34499 ft | 463 kts | 171° |
| 2026-05-08 17:22 | 44.46195 | 13.16667 | 34734 ft | 466 kts | 171° |
| 2026-05-08 17:22 | 44.43064 | 13.17769 | 34897 ft | 469 kts | 172° |
| 2026-05-08 17:22 | 44.39861 | 13.18895 | 35022 ft | 472 kts | 171° |
| 2026-05-08 17:22 | 44.36702 | 13.20005 | 35032 ft | 472 kts | 171° |
| 2026-05-08 17:23 | 44.30336 | 13.22249 | 35024 ft | 470 kts | 172° |
| 2026-05-08 17:23 | 44.23978 | 13.24479 | 35035 ft | 474 kts | 172° |
| 2026-05-08 17:24 | 44.17601 | 13.26713 | 35021 ft | 472 kts | 172° |
| 2026-05-08 17:24 | 44.11244 | 13.28927 | 35026 ft | 477 kts | 172° |
| 2026-05-08 17:25 | 44.04809 | 13.31165 | 35030 ft | 476 kts | 172° |
| 2026-05-08 17:25 | 43.98389 | 13.33398 | 35021 ft | 478 kts | 172° |
| 2026-05-08 17:26 | 43.91940 | 13.35635 | 35025 ft | 478 kts | 172° |
| 2026-05-08 17:26 | 43.85450 | 13.37880 | 35023 ft | 478 kts | 172° |
| 2026-05-08 17:27 | 43.78984 | 13.40110 | 35020 ft | 479 kts | 172° |
| 2026-05-08 17:27 | 43.72545 | 13.42329 | 35018 ft | 479 kts | 172° |
| 2026-05-08 17:28 | 43.66057 | 13.44557 | 35025 ft | 478 kts | 172° |
| 2026-05-08 17:28 | 43.59732 | 13.47544 | 35017 ft | 491 kts | 156° |
| 2026-05-08 17:29 | 43.56890 | 13.50204 | 35026 ft | 501 kts | 143° |
| 2026-05-08 17:29 | 43.54384 | 13.53581 | 35026 ft | 505 kts | 136° |
| 2026-05-08 17:29 | 43.49728 | 13.60858 | 35023 ft | 507 kts | 133° |
| 2026-05-08 17:30 | 43.45041 | 13.68064 | 35018 ft | 505 kts | 137° |
| 2026-05-08 17:30 | 43.40201 | 13.75046 | 35024 ft | 505 kts | 137° |
| 2026-05-08 17:31 | 43.35353 | 13.81983 | 35026 ft | 504 kts | 137° |
| 2026-05-08 17:31 | 43.30506 | 13.88960 | 35024 ft | 505 kts | 137° |
| 2026-05-08 17:32 | 43.25698 | 13.95927 | 35029 ft | 507 kts | 137° |
| 2026-05-08 17:32 | 43.20852 | 14.02961 | 35030 ft | 507 kts | 137° |
| 2026-05-08 17:33 | 43.16018 | 14.09976 | 35026 ft | 507 kts | 137° |
| 2026-05-08 17:33 | 43.11198 | 14.16953 | 35028 ft | 507 kts | 137° |
| 2026-05-08 17:34 | 43.06347 | 14.23958 | 35030 ft | 507 kts | 137° |
| 2026-05-08 17:34 | 43.01480 | 14.30963 | 35029 ft | 509 kts | 137° |
| 2026-05-08 17:35 | 42.96620 | 14.37943 | 35028 ft | 508 kts | 137° |
| 2026-05-08 17:35 | 42.91775 | 14.44886 | 35028 ft | 508 kts | 137° |
| 2026-05-08 17:36 | 42.86870 | 14.51899 | 35027 ft | 508 kts | 137° |
| 2026-05-08 17:36 | 42.81992 | 14.58854 | 35028 ft | 509 kts | 137° |
| 2026-05-08 17:37 | 42.77121 | 14.65783 | 35031 ft | 509 kts | 137° |
| 2026-05-08 17:37 | 42.72239 | 14.72711 | 35032 ft | 509 kts | 138° |
| 2026-05-08 17:38 | 42.67353 | 14.79624 | 35028 ft | 510 kts | 138° |
| 2026-05-08 17:38 | 42.62417 | 14.86592 | 35029 ft | 510 kts | 137° |
| 2026-05-08 17:39 | 42.57508 | 14.93507 | 35030 ft | 511 kts | 137° |
| 2026-05-08 17:39 | 42.52589 | 15.00420 | 35028 ft | 512 kts | 137° |
| 2026-05-08 17:40 | 42.47661 | 15.07326 | 35028 ft | 511 kts | 137° |
| 2026-05-08 17:40 | 42.42724 | 15.14230 | 35027 ft | 510 kts | 137° |
| 2026-05-08 17:41 | 42.37783 | 15.21121 | 34587 ft | 514 kts | 137° |
| 2026-05-08 17:41 | 42.35312 | 15.24561 | 34004 ft | 515 kts | 137° |
| 2026-05-08 17:41 | 42.32814 | 15.28035 | 33233 ft | 514 kts | 137° |
| 2026-05-08 17:42 | 42.30349 | 15.31462 | 32687 ft | 508 kts | 137° |
| 2026-05-08 17:42 | 42.27882 | 15.34890 | 32133 ft | 505 kts | 137° |
| 2026-05-08 17:42 | 42.25444 | 15.38270 | 31564 ft | 505 kts | 137° |
| 2026-05-08 17:42 | 42.23014 | 15.41633 | 30993 ft | 508 kts | 137° |
| 2026-05-08 17:43 | 42.20549 | 15.45037 | 30404 ft | 509 kts | 137° |
| 2026-05-08 17:43 | 42.18074 | 15.48452 | 29818 ft | 510 kts | 137° |
| 2026-05-08 17:43 | 42.15612 | 15.51844 | 29231 ft | 509 kts | 137° |
| 2026-05-08 17:43 | 42.13125 | 15.55269 | 28627 ft | 506 kts | 137° |
| 2026-05-08 17:44 | 42.10699 | 15.58607 | 28043 ft | 505 kts | 137° |
| 2026-05-08 17:44 | 42.08242 | 15.61985 | 27438 ft | 505 kts | 137° |
| 2026-05-08 17:44 | 42.05767 | 15.65381 | 26823 ft | 505 kts | 137° |
| 2026-05-08 17:44 | 42.03340 | 15.68709 | 26222 ft | 504 kts | 137° |
| 2026-05-08 17:45 | 42.00894 | 15.72058 | 25606 ft | 503 kts | 137° |
| 2026-05-08 17:45 | 41.98454 | 15.75397 | 25000 ft | 500 kts | 137° |
| 2026-05-08 17:45 | 41.96046 | 15.78688 | 24399 ft | 494 kts | 137° |
| 2026-05-08 17:45 | 41.93651 | 15.81959 | 23796 ft | 486 kts | 137° |
| 2026-05-08 17:46 | 41.91294 | 15.85175 | 23194 ft | 479 kts | 137° |
| 2026-05-08 17:46 | 41.88997 | 15.88306 | 22618 ft | 472 kts | 137° |
| 2026-05-08 17:46 | 41.86713 | 15.91415 | 22034 ft | 469 kts | 137° |
| 2026-05-08 17:46 | 41.84408 | 15.94545 | 21446 ft | 468 kts | 137° |
| 2026-05-08 17:47 | 41.82147 | 15.97611 | 20859 ft | 463 kts | 137° |
| 2026-05-08 17:47 | 41.79889 | 16.00672 | 20275 ft | 460 kts | 136° |
| 2026-05-08 17:47 | 41.77658 | 16.03692 | 19687 ft | 456 kts | 136° |
| 2026-05-08 17:47 | 41.76183 | 16.05688 | 19297 ft | 453 kts | 136° |
| 2026-05-08 17:48 | 41.73236 | 16.09671 | 18513 ft | 450 kts | 136° |
| 2026-05-08 17:48 | 41.71054 | 16.12618 | 17923 ft | 446 kts | 136° |
| 2026-05-08 17:48 | 41.68890 | 16.15538 | 17348 ft | 440 kts | 136° |
| 2026-05-08 17:48 | 41.66757 | 16.18413 | 16774 ft | 436 kts | 136° |
| 2026-05-08 17:49 | 41.64653 | 16.21247 | 16195 ft | 432 kts | 135° |
| 2026-05-08 17:49 | 41.62550 | 16.24075 | 15611 ft | 427 kts | 135° |
| 2026-05-08 17:49 | 41.60462 | 16.26882 | 15026 ft | 422 kts | 135° |
| 2026-05-08 17:49 | 41.58412 | 16.29639 | 14470 ft | 419 kts | 135° |
| 2026-05-08 17:50 | 41.56428 | 16.32410 | 14009 ft | 412 kts | 129° |
| 2026-05-08 17:50 | 41.54894 | 16.35596 | 13770 ft | 412 kts | 117° |
| 2026-05-08 17:50 | 41.53701 | 16.39097 | 13533 ft | 413 kts | 111° |
| 2026-05-08 17:50 | 41.52661 | 16.42639 | 13285 ft | 412 kts | 110° |
| 2026-05-08 17:51 | 41.51649 | 16.46191 | 13045 ft | 411 kts | 110° |
| 2026-05-08 17:51 | 41.50617 | 16.49730 | 12805 ft | 408 kts | 110° |
| 2026-05-08 17:51 | 41.49557 | 16.53223 | 12560 ft | 406 kts | 111° |
| 2026-05-08 17:51 | 41.48478 | 16.56664 | 12322 ft | 406 kts | 111° |
| 2026-05-08 17:52 | 41.47365 | 16.60136 | 12076 ft | 402 kts | 112° |
| 2026-05-08 17:52 | 41.46257 | 16.63544 | 11812 ft | 397 kts | 112° |
| 2026-05-08 17:52 | 41.44094 | 16.70142 | 10539 ft | 390 kts | 112° |
| 2026-05-08 17:53 | 41.43010 | 16.73439 | 9996 ft | 383 kts | 112° |
| 2026-05-08 17:53 | 41.41964 | 16.76622 | 9404 ft | 378 kts | 112° |
| 2026-05-08 17:53 | 41.40915 | 16.79817 | 8702 ft | 377 kts | 111° |
| 2026-05-08 17:53 | 41.39864 | 16.83020 | 8157 ft | 374 kts | 111° |
| 2026-05-08 17:54 | 41.38840 | 16.86146 | 7662 ft | 372 kts | 111° |
| 2026-05-08 17:54 | 41.37809 | 16.89300 | 7164 ft | 370 kts | 111° |
| 2026-05-08 17:54 | 41.36787 | 16.92413 | 6617 ft | 366 kts | 111° |
| 2026-05-08 17:54 | 41.35778 | 16.95472 | 6166 ft | 361 kts | 111° |
| 2026-05-08 17:55 | 41.34772 | 16.98523 | 5636 ft | 359 kts | 111° |
| 2026-05-08 17:55 | 41.33897 | 17.01585 | 5124 ft | 352 kts | 104° |
| 2026-05-08 17:55 | 41.33510 | 17.04691 | 4973 ft | 329 kts | 89° |
| 2026-05-08 17:55 | 41.33351 | 17.07634 | 4972 ft | 313 kts | 100° |
| 2026-05-08 17:56 | 41.32429 | 17.10190 | 4993 ft | 313 kts | 127° |
| 2026-05-08 17:56 | 41.30716 | 17.11876 | 5008 ft | 305 kts | 156° |
| 2026-05-08 17:56 | 41.28671 | 17.12229 | 4969 ft | 292 kts | 189° |
| 2026-05-08 17:56 | 41.26808 | 17.11287 | 4963 ft | 283 kts | 211° |
| 2026-05-08 17:57 | 41.25172 | 17.09854 | 4745 ft | 281 kts | 218° |
| 2026-05-08 17:57 | 41.23737 | 17.08177 | 4312 ft | 273 kts | 228° |
| 2026-05-08 17:57 | 41.22583 | 17.06231 | 3828 ft | 268 kts | 240° |
| 2026-05-08 17:57 | 41.21734 | 17.04039 | 3320 ft | 265 kts | 249° |
| 2026-05-08 17:58 | 41.21094 | 17.01810 | 3008 ft | 255 kts | 252° |
| 2026-05-08 17:58 | 41.20523 | 16.99673 | 2990 ft | 233 kts | 252° |
| 2026-05-08 17:58 | 41.19993 | 16.97735 | 2903 ft | 218 kts | 252° |
| 2026-05-08 17:58 | 41.19469 | 16.95850 | 2605 ft | 216 kts | 252° |
| 2026-05-08 17:59 | 41.18957 | 16.94026 | 2457 ft | 209 kts | 252° |
| 2026-05-08 17:59 | 41.18459 | 16.92250 | 2290 ft | 202 kts | 252° |
| 2026-05-08 17:59 | 41.17971 | 16.90508 | 2093 ft | 197 kts | 252° |
| 2026-05-08 17:59 | 41.17502 | 16.88843 | 1957 ft | 190 kts | 252° |
| 2026-05-08 18:00 | 41.17046 | 16.87218 | 1677 ft | 191 kts | 252° |
| 2026-05-08 18:00 | 41.16150 | 16.84036 | 1187 ft | 170 kts | 253° |
| 2026-05-08 18:00 | 41.15748 | 16.82604 | 939 ft | 161 kts | 252° |
| 2026-05-08 18:01 | 41.15362 | 16.81234 | 736 ft | 157 kts | 253° |
| 2026-05-08 18:01 | 41.14985 | 16.79892 | 532 ft | 155 kts | 252° |
| 2026-05-08 18:01 | 41.14597 | 16.78564 | 325 ft | 152 kts | 249° |
| 2026-05-08 18:01 | 41.14206 | 16.77308 | 147 ft | 146 kts | 252° |
| 2026-05-08 18:02 | 41.13895 | 16.76209 | 147 ft | 95 kts | 251° |
| 2026-05-08 18:02 | 41.13786 | 16.75793 | 156 ft | 52 kts | 251° |
| 2026-05-08 18:02 | 41.13694 | 16.75466 | 163 ft | 10 kts | 221° |
| 2026-05-08 18:02 | 41.13687 | 16.75519 | 162 ft | 10 kts | 65° |
| 2026-05-08 18:03 | 41.13681 | 16.75624 | 160 ft | 13 kts | 116° |
| 2026-05-08 18:03 | 41.13656 | 16.75745 | 158 ft | 14 kts | 97° |
| 2026-05-08 18:03 | 41.13641 | 16.75884 | 155 ft | 16 kts | 99° |
| 2026-05-08 18:03 | 41.13624 | 16.76033 | 153 ft | 16 kts | 120° |
| 2026-05-08 18:04 | 41.13554 | 16.76152 | 152 ft | 16 kts | 92° |
| 2026-05-08 18:04 | 41.13587 | 16.76283 | 149 ft | 8 kts | 79° |
| 2026-05-08 18:04 | 41.13549 | 16.76331 | 149 ft | 6 kts | 159° |
| 2026-05-08 18:04 | 41.13524 | 16.76344 | 149 ft | 0 kts | 159° |